sensor_id;sensor_type;location;lat;lon;timestamp;pressure;altitude;pressure_sealevel;temperature;humidity
47985;BME280;33753;52.912;-7.342;2023-05-17T00:00:51;101654.81;;;8.47;100.00
47985;BME280;33753;52.912;-7.342;2023-05-17T00:03:19;101663.34;;;8.41;100.00
47985;BME280;33753;52.912;-7.342;2023-05-17T00:05:47;101660.91;;;8.38;100.00
47985;BME280;33753;52.912;-7.342;2023-05-17T00:08:15;101669.13;;;8.37;100.00
47985;BME280;33753;52.912;-7.342;2023-05-17T00:10:43;101670.88;;;8.26;100.00
47985;BME280;33753;52.912;-7.342;2023-05-17T00:13:11;101671.47;;;8.30;100.00
47985;BME280;33753;52.912;-7.342;2023-05-17T00:15:41;101675.31;;;8.27;100.00
47985;BME280;33753;52.912;-7.342;2023-05-17T00:18:09;101678.97;;;8.26;100.00
47985;BME280;33753;52.912;-7.342;2023-05-17T00:20:38;101669.44;;;8.22;100.00
47985;BME280;33753;52.912;-7.342;2023-05-17T00:23:06;101668.47;;;8.12;100.00
47985;BME280;33753;52.912;-7.342;2023-05-17T00:25:34;101660.16;;;8.04;100.00
47985;BME280;33753;52.912;-7.342;2023-05-17T00:28:02;101658.31;;;7.93;100.00
47985;BME280;33753;52.912;-7.342;2023-05-17T00:30:31;101673.06;;;7.77;100.00
47985;BME280;33753;52.912;-7.342;2023-05-17T00:33:03;101667.03;;;7.74;100.00
47985;BME280;33753;52.912;-7.342;2023-05-17T00:35:32;101673.78;;;7.68;100.00
47985;BME280;33753;52.912;-7.342;2023-05-17T00:38:00;101674.16;;;7.64;100.00
47985;BME280;33753;52.912;-7.342;2023-05-17T00:40:29;101677.22;;;7.59;100.00
47985;BME280;33753;52.912;-7.342;2023-05-17T00:42:57;101674.28;;;7.51;100.00
47985;BME280;33753;52.912;-7.342;2023-05-17T00:45:26;101679.91;;;7.48;100.00
47985;BME280;33753;52.912;-7.342;2023-05-17T00:47:54;101678.69;;;7.40;100.00
47985;BME280;33753;52.912;-7.342;2023-05-17T00:50:24;101679.13;;;7.34;100.00
47985;BME280;33753;52.912;-7.342;2023-05-17T00:52:53;101674.00;;;7.31;100.00
47985;BME280;33753;52.912;-7.342;2023-05-17T00:55:22;101686.84;;;7.28;100.00
47985;BME280;33753;52.912;-7.342;2023-05-17T00:57:51;101686.09;;;7.25;100.00
47985;BME280;33753;52.912;-7.342;2023-05-17T01:00:19;101682.28;;;7.17;100.00
47985;BME280;33753;52.912;-7.342;2023-05-17T01:02:47;101683.25;;;7.16;100.00
47985;BME280;33753;52.912;-7.342;2023-05-17T01:05:16;101687.19;;;7.12;100.00
47985;BME280;33753;52.912;-7.342;2023-05-17T01:07:46;101679.34;;;7.08;100.00
47985;BME280;33753;52.912;-7.342;2023-05-17T01:10:14;101687.16;;;7.00;100.00
47985;BME280;33753;52.912;-7.342;2023-05-17T01:12:45;101696.19;;;6.99;100.00
47985;BME280;33753;52.912;-7.342;2023-05-17T01:15:18;101689.09;;;6.98;100.00
47985;BME280;33753;52.912;-7.342;2023-05-17T01:17:49;101705.25;;;6.98;100.00
47985;BME280;33753;52.912;-7.342;2023-05-17T01:20:20;101694.72;;;6.95;100.00
47985;BME280;33753;52.912;-7.342;2023-05-17T01:22:58;101698.63;;;6.91;100.00
47985;BME280;33753;52.912;-7.342;2023-05-17T01:25:35;101702.38;;;6.88;100.00
47985;BME280;33753;52.912;-7.342;2023-05-17T01:28:09;101702.13;;;6.80;100.00
47985;BME280;33753;52.912;-7.342;2023-05-17T01:30:37;101698.09;;;6.74;100.00
47985;BME280;33753;52.912;-7.342;2023-05-17T01:33:08;101695.94;;;6.67;100.00
47985;BME280;33753;52.912;-7.342;2023-05-17T01:35:36;101701.31;;;6.67;100.00
47985;BME280;33753;52.912;-7.342;2023-05-17T01:38:04;101697.03;;;6.64;100.00
47985;BME280;33753;52.912;-7.342;2023-05-17T01:40:34;101698.75;;;6.65;100.00
47985;BME280;33753;52.912;-7.342;2023-05-17T01:43:04;101707.78;;;6.64;100.00
47985;BME280;33753;52.912;-7.342;2023-05-17T01:45:40;101702.66;;;6.61;100.00
47985;BME280;33753;52.912;-7.342;2023-05-17T01:48:13;101701.81;;;6.61;100.00
47985;BME280;33753;52.912;-7.342;2023-05-17T01:50:44;101714.47;;;6.58;100.00
47985;BME280;33753;52.912;-7.342;2023-05-17T01:53:17;101719.75;;;6.60;100.00
47985;BME280;33753;52.912;-7.342;2023-05-17T01:55:48;101728.69;;;6.61;100.00
47985;BME280;33753;52.912;-7.342;2023-05-17T01:58:20;101731.25;;;6.62;100.00
47985;BME280;33753;52.912;-7.342;2023-05-17T02:00:51;101731.25;;;6.62;100.00
47985;BME280;33753;52.912;-7.342;2023-05-17T02:03:20;101724.38;;;6.58;100.00
47985;BME280;33753;52.912;-7.342;2023-05-17T02:05:51;101721.94;;;6.55;100.00
47985;BME280;33753;52.912;-7.342;2023-05-17T02:08:19;101717.53;;;6.54;100.00
47985;BME280;33753;52.912;-7.342;2023-05-17T02:10:47;101715.06;;;6.51;100.00
47985;BME280;33753;52.912;-7.342;2023-05-17T02:13:16;101719.72;;;6.49;100.00
47985;BME280;33753;52.912;-7.342;2023-05-17T02:15:44;101716.25;;;6.47;100.00
47985;BME280;33753;52.912;-7.342;2023-05-17T02:18:14;101720.69;;;6.48;100.00
47985;BME280;33753;52.912;-7.342;2023-05-17T02:20:45;101718.84;;;6.48;100.00
47985;BME280;33753;52.912;-7.342;2023-05-17T02:23:13;101717.09;;;6.47;100.00
47985;BME280;33753;52.912;-7.342;2023-05-17T02:25:41;101713.34;;;6.50;100.00
47985;BME280;33753;52.912;-7.342;2023-05-17T02:28:09;101717.53;;;6.54;100.00
47985;BME280;33753;52.912;-7.342;2023-05-17T02:30:37;101707.28;;;6.59;100.00
47985;BME280;33753;52.912;-7.342;2023-05-17T02:33:07;101709.75;;;6.62;100.00
47985;BME280;33753;52.912;-7.342;2023-05-17T02:35:37;101712.97;;;6.67;100.00
47985;BME280;33753;52.912;-7.342;2023-05-17T02:38:05;101710.75;;;6.72;100.00
47985;BME280;33753;52.912;-7.342;2023-05-17T02:40:33;101713.22;;;6.75;100.00
47985;BME280;33753;52.912;-7.342;2023-05-17T02:43:02;101715.47;;;6.82;100.00
47985;BME280;33753;52.912;-7.342;2023-05-17T02:45:34;101712.41;;;6.86;100.00
47985;BME280;33753;52.912;-7.342;2023-05-17T02:48:04;101714.75;;;6.91;100.00
47985;BME280;33753;52.912;-7.342;2023-05-17T02:50:32;101696.44;;;6.96;100.00
47985;BME280;33753;52.912;-7.342;2023-05-17T02:53:02;101697.81;;;7.02;100.00
47985;BME280;33753;52.912;-7.342;2023-05-17T02:55:30;101693.78;;;7.07;100.00
47985;BME280;33753;52.912;-7.342;2023-05-17T02:57:58;101697.19;;;7.09;100.00
47985;BME280;33753;52.912;-7.342;2023-05-17T03:00:27;101701.75;;;7.09;100.00
47985;BME280;33753;52.912;-7.342;2023-05-17T03:02:55;101708.72;;;7.12;100.00
47985;BME280;33753;52.912;-7.342;2023-05-17T03:05:24;101694.28;;;7.13;100.00
47985;BME280;33753;52.912;-7.342;2023-05-17T03:07:52;101689.88;;;7.12;100.00
47985;BME280;33753;52.912;-7.342;2023-05-17T03:10:22;101691.69;;;7.11;100.00
47985;BME280;33753;52.912;-7.342;2023-05-17T03:12:51;101688.41;;;7.07;100.00
47985;BME280;33753;52.912;-7.342;2023-05-17T03:15:21;101688.63;;;7.04;100.00
47985;BME280;33753;52.912;-7.342;2023-05-17T03:17:52;101681.53;;;7.03;100.00
47985;BME280;33753;52.912;-7.342;2023-05-17T03:20:22;101689.09;;;6.98;100.00
47985;BME280;33753;52.912;-7.342;2023-05-17T03:22:50;101681.50;;;6.92;100.00
47985;BME280;33753;52.912;-7.342;2023-05-17T03:25:19;101679.06;;;6.89;100.00
47985;BME280;33753;52.912;-7.342;2023-05-17T03:27:50;101682.06;;;6.84;100.00
47985;BME280;33753;52.912;-7.342;2023-05-17T03:30:19;101683.19;;;6.82;100.00
47985;BME280;33753;52.912;-7.342;2023-05-17T03:32:47;101689.66;;;6.79;100.00
47985;BME280;33753;52.912;-7.342;2023-05-17T03:35:16;101686.31;;;6.75;100.00
47985;BME280;33753;52.912;-7.342;2023-05-17T03:37:48;101686.81;;;6.69;100.00
47985;BME280;33753;52.912;-7.342;2023-05-17T03:40:17;101682.63;;;6.65;100.00
47985;BME280;33753;52.912;-7.342;2023-05-17T03:42:45;101675.75;;;6.61;100.00
47985;BME280;33753;52.912;-7.342;2023-05-17T03:45:15;101668.28;;;6.53;100.00
47985;BME280;33753;52.912;-7.342;2023-05-17T03:47:44;101671.31;;;6.49;100.00
47985;BME280;33753;52.912;-7.342;2023-05-17T03:50:13;101683.28;;;6.45;100.00
47985;BME280;33753;52.912;-7.342;2023-05-17T03:52:41;101688.78;;;6.43;100.00
47985;BME280;33753;52.912;-7.342;2023-05-17T03:55:10;101695.22;;;6.40;100.00
47985;BME280;33753;52.912;-7.342;2023-05-17T03:57:38;101696.19;;;6.39;100.00
47985;BME280;33753;52.912;-7.342;2023-05-17T04:00:07;101686.63;;;6.35;100.00
47985;BME280;33753;52.912;-7.342;2023-05-17T04:02:44;101686.88;;;6.32;100.00
47985;BME280;33753;52.912;-7.342;2023-05-17T04:05:12;101683.75;;;6.26;100.00
47985;BME280;33753;52.912;-7.342;2023-05-17T04:07:44;101686.91;;;6.19;100.00
47985;BME280;33753;52.912;-7.342;2023-05-17T04:10:12;101688.22;;;6.14;100.00
47985;BME280;33753;52.912;-7.342;2023-05-17T04:12:41;101681.13;;;6.13;100.00
47985;BME280;33753;52.912;-7.342;2023-05-17T04:15:09;101683.53;;;6.04;100.00
47985;BME280;33753;52.912;-7.342;2023-05-17T04:17:39;101676.91;;;5.97;100.00
47985;BME280;33753;52.912;-7.342;2023-05-17T04:20:10;101678.59;;;5.98;100.00
47985;BME280;33753;52.912;-7.342;2023-05-17T04:22:40;101682.25;;;5.97;100.00
47985;BME280;33753;52.912;-7.342;2023-05-17T04:25:09;101681.47;;;5.95;100.00
47985;BME280;33753;52.912;-7.342;2023-05-17T04:27:38;101678.78;;;5.95;100.00
47985;BME280;33753;52.912;-7.342;2023-05-17T04:30:08;101672.56;;;5.95;100.00
47985;BME280;33753;52.912;-7.342;2023-05-17T04:32:37;101673.53;;;5.94;100.00
47985;BME280;33753;52.912;-7.342;2023-05-17T04:35:06;101681.59;;;5.94;100.00
47985;BME280;33753;52.912;-7.342;2023-05-17T04:37:36;101685.13;;;5.94;100.00
47985;BME280;33753;52.912;-7.342;2023-05-17T04:40:16;101684.16;;;5.95;100.00
47985;BME280;33753;52.912;-7.342;2023-05-17T04:42:45;101674.25;;;5.96;100.00
47985;BME280;33753;52.912;-7.342;2023-05-17T04:45:17;101670.84;;;5.94;100.00
47985;BME280;33753;52.912;-7.342;2023-05-17T04:47:46;101667.31;;;5.93;100.00
47985;BME280;33753;52.912;-7.342;2023-05-17T04:50:16;101677.28;;;5.91;100.00
47985;BME280;33753;52.912;-7.342;2023-05-17T04:52:46;101673.00;;;5.88;100.00
47985;BME280;33753;52.912;-7.342;2023-05-17T04:55:14;101680.09;;;5.89;100.00
47985;BME280;33753;52.912;-7.342;2023-05-17T04:57:42;101688.03;;;5.91;100.00
47985;BME280;33753;52.912;-7.342;2023-05-17T05:00:13;101691.25;;;5.96;100.00
47985;BME280;33753;52.912;-7.342;2023-05-17T05:02:47;101690.22;;;5.99;100.00
47985;BME280;33753;52.912;-7.342;2023-05-17T05:05:15;101696.19;;;6.02;100.00
47985;BME280;33753;52.912;-7.342;2023-05-17T05:07:46;101703.06;;;6.07;100.00
47985;BME280;33753;52.912;-7.342;2023-05-17T05:10:14;101706.41;;;6.10;100.00
47985;BME280;33753;52.912;-7.342;2023-05-17T05:12:42;101707.75;;;6.16;100.00
47985;BME280;33753;52.912;-7.342;2023-05-17T05:15:11;101718.06;;;6.22;100.00
47985;BME280;33753;52.912;-7.342;2023-05-17T05:17:44;101715.91;;;6.27;100.00
47985;BME280;33753;52.912;-7.342;2023-05-17T05:20:13;101706.31;;;6.36;100.00
47985;BME280;33753;52.912;-7.342;2023-05-17T05:22:42;101717.56;;;6.41;100.00
47985;BME280;33753;52.912;-7.342;2023-05-17T05:25:13;101723.13;;;6.51;100.00
47985;BME280;33753;52.912;-7.342;2023-05-17T05:27:41;101729.75;;;6.58;100.00
47985;BME280;33753;52.912;-7.342;2023-05-17T05:30:12;101727.38;;;6.66;100.00
47985;BME280;33753;52.912;-7.342;2023-05-17T05:32:49;101733.75;;;6.77;100.00
47985;BME280;33753;52.912;-7.342;2023-05-17T05:35:19;101747.50;;;6.85;100.00
47985;BME280;33753;52.912;-7.342;2023-05-17T05:37:52;101750.47;;;6.93;100.00
47985;BME280;33753;52.912;-7.342;2023-05-17T05:40:22;101753.41;;;7.01;100.00
47985;BME280;33753;52.912;-7.342;2023-05-17T05:42:51;101752.84;;;7.09;100.00
47985;BME280;33753;52.912;-7.342;2023-05-17T05:45:19;101764.75;;;7.18;100.00
47985;BME280;33753;52.912;-7.342;2023-05-17T05:47:50;101759.41;;;7.29;100.00
47985;BME280;33753;52.912;-7.342;2023-05-17T05:50:19;101756.09;;;7.37;100.00
47985;BME280;33753;52.912;-7.342;2023-05-17T05:52:50;101753.31;;;7.50;100.00
47985;BME280;33753;52.912;-7.342;2023-05-17T05:55:31;101760.31;;;7.64;100.00
47985;BME280;33753;52.912;-7.342;2023-05-17T05:57:59;101757.53;;;7.76;100.00
47985;BME280;33753;52.912;-7.342;2023-05-17T06:00:27;101755.56;;;7.90;100.00
47985;BME280;33753;52.912;-7.342;2023-05-17T06:02:56;101765.38;;;8.02;100.00
47985;BME280;33753;52.912;-7.342;2023-05-17T06:05:25;101766.84;;;8.18;100.00
47985;BME280;33753;52.912;-7.342;2023-05-17T06:07:53;101767.03;;;8.37;100.00
47985;BME280;33753;52.912;-7.342;2023-05-17T06:10:21;101769.84;;;8.58;100.00
47985;BME280;33753;52.912;-7.342;2023-05-17T06:12:51;101777.53;;;8.74;100.00
47985;BME280;33753;52.912;-7.342;2023-05-17T06:15:19;101774.69;;;8.87;100.00
47985;BME280;33753;52.912;-7.342;2023-05-17T06:17:48;101774.78;;;8.97;100.00
47985;BME280;33753;52.912;-7.342;2023-05-17T06:20:16;101773.63;;;9.11;100.00
47985;BME280;33753;52.912;-7.342;2023-05-17T06:22:45;101766.59;;;9.41;100.00
47985;BME280;33753;52.912;-7.342;2023-05-17T06:25:13;101773.00;;;9.92;100.00
47985;BME280;33753;52.912;-7.342;2023-05-17T06:27:41;101783.06;;;10.51;100.00
47985;BME280;33753;52.912;-7.342;2023-05-17T06:30:12;101781.84;;;11.14;100.00
47985;BME280;33753;52.912;-7.342;2023-05-17T06:32:40;101777.78;;;11.77;100.00
47985;BME280;33753;52.912;-7.342;2023-05-17T06:35:09;101766.19;;;12.32;100.00
47985;BME280;33753;52.912;-7.342;2023-05-17T06:37:38;101749.56;;;12.81;100.00
47985;BME280;33753;52.912;-7.342;2023-05-17T06:40:06;101746.75;;;13.45;100.00
47985;BME280;33753;52.912;-7.342;2023-05-17T06:42:42;101737.84;;;13.87;100.00
47985;BME280;33753;52.912;-7.342;2023-05-17T06:45:12;101734.97;;;14.31;100.00
47985;BME280;33753;52.912;-7.342;2023-05-17T06:47:41;101728.38;;;14.42;100.00
47985;BME280;33753;52.912;-7.342;2023-05-17T06:50:10;101728.97;;;14.62;100.00
47985;BME280;33753;52.912;-7.342;2023-05-17T06:52:38;101719.38;;;14.58;100.00
47985;BME280;33753;52.912;-7.342;2023-05-17T06:55:07;101720.81;;;14.87;100.00
47985;BME280;33753;52.912;-7.342;2023-05-17T06:57:35;101724.22;;;14.97;100.00
47985;BME280;33753;52.912;-7.342;2023-05-17T07:00:04;101712.84;;;15.02;100.00
47985;BME280;33753;52.912;-7.342;2023-05-17T07:02:38;101711.41;;;15.64;100.00
47985;BME280;33753;52.912;-7.342;2023-05-17T07:05:06;101714.38;;;16.02;100.00
47985;BME280;33753;52.912;-7.342;2023-05-17T07:07:35;101724.22;;;16.51;100.00
47985;BME280;33753;52.912;-7.342;2023-05-17T07:10:03;101707.59;;;16.84;100.00
47985;BME280;33753;52.912;-7.342;2023-05-17T07:12:32;101712.50;;;17.35;100.00
47985;BME280;33753;52.912;-7.342;2023-05-17T07:15:00;101697.69;;;17.59;100.00
47985;BME280;33753;52.912;-7.342;2023-05-17T07:17:28;101703.28;;;17.81;100.00
47985;BME280;33753;52.912;-7.342;2023-05-17T07:19:58;101697.19;;;17.93;100.00
47985;BME280;33753;52.912;-7.342;2023-05-17T07:22:27;101699.63;;;18.40;100.00
47985;BME280;33753;52.912;-7.342;2023-05-17T07:24:56;101697.97;;;18.24;100.00
47985;BME280;33753;52.912;-7.342;2023-05-17T07:27:24;101697.72;;;18.40;100.00
47985;BME280;33753;52.912;-7.342;2023-05-17T07:29:56;101692.16;;;18.70;100.00
47985;BME280;33753;52.912;-7.342;2023-05-17T07:32:24;101691.41;;;18.98;100.00
47985;BME280;33753;52.912;-7.342;2023-05-17T07:34:52;101689.28;;;19.22;100.00
47985;BME280;33753;52.912;-7.342;2023-05-17T07:37:23;101688.56;;;19.41;100.00
47985;BME280;33753;52.912;-7.342;2023-05-17T07:39:51;101693.50;;;19.52;100.00
47985;BME280;33753;52.912;-7.342;2023-05-17T07:42:19;101693.91;;;19.78;100.00
47985;BME280;33753;52.912;-7.342;2023-05-17T07:44:48;101692.31;;;19.97;100.00
47985;BME280;33753;52.912;-7.342;2023-05-17T07:47:16;101691.38;;;20.25;100.00
47985;BME280;33753;52.912;-7.342;2023-05-17T07:49:44;101690.19;;;20.47;100.00
47985;BME280;33753;52.912;-7.342;2023-05-17T07:52:13;101683.31;;;20.78;100.00
47985;BME280;33753;52.912;-7.342;2023-05-17T07:54:42;101684.78;;;21.48;100.00
47985;BME280;33753;52.912;-7.342;2023-05-17T07:57:10;101683.63;;;21.89;100.00
47985;BME280;33753;52.912;-7.342;2023-05-17T07:59:39;101683.88;;;22.39;100.00
47985;BME280;33753;52.912;-7.342;2023-05-17T08:02:07;101679.94;;;22.86;100.00
47985;BME280;33753;52.912;-7.342;2023-05-17T08:04:35;101679.94;;;23.18;100.00
47985;BME280;33753;52.912;-7.342;2023-05-17T08:07:04;101680.53;;;23.45;100.00
47985;BME280;33753;52.912;-7.342;2023-05-17T08:09:32;101679.47;;;23.64;100.00
47985;BME280;33753;52.912;-7.342;2023-05-17T08:12:02;101676.59;;;23.96;100.00
47985;BME280;33753;52.912;-7.342;2023-05-17T08:14:30;101675.50;;;23.97;100.00
47985;BME280;33753;52.912;-7.342;2023-05-17T08:16:58;101675.97;;;24.13;100.00
47985;BME280;33753;52.912;-7.342;2023-05-17T08:19:26;101678.28;;;23.97;100.00
47985;BME280;33753;52.912;-7.342;2023-05-17T08:21:55;101667.06;;;24.11;100.00
47985;BME280;33753;52.912;-7.342;2023-05-17T08:24:24;101668.72;;;24.12;100.00
47985;BME280;33753;52.912;-7.342;2023-05-17T08:26:55;101658.53;;;24.12;100.00
47985;BME280;33753;52.912;-7.342;2023-05-17T08:29:25;101661.09;;;24.98;100.00
47985;BME280;33753;52.912;-7.342;2023-05-17T08:31:53;101659.72;;;25.31;100.00
47985;BME280;33753;52.912;-7.342;2023-05-17T08:34:22;101665.84;;;25.33;100.00
47985;BME280;33753;52.912;-7.342;2023-05-17T08:36:50;101656.53;;;24.92;100.00
47985;BME280;33753;52.912;-7.342;2023-05-17T08:39:19;101663.25;;;24.96;100.00
47985;BME280;33753;52.912;-7.342;2023-05-17T08:41:47;101657.16;;;25.42;100.00
47985;BME280;33753;52.912;-7.342;2023-05-17T08:44:16;101657.50;;;25.81;100.00
47985;BME280;33753;52.912;-7.342;2023-05-17T08:46:45;101651.38;;;26.08;100.00
47985;BME280;33753;52.912;-7.342;2023-05-17T08:49:20;101650.13;;;26.27;100.00
47985;BME280;33753;52.912;-7.342;2023-05-17T08:51:49;101655.28;;;26.35;100.00
47985;BME280;33753;52.912;-7.342;2023-05-17T08:54:17;101654.25;;;26.70;100.00
47985;BME280;33753;52.912;-7.342;2023-05-17T08:56:46;101659.16;;;26.97;100.00
47985;BME280;33753;52.912;-7.342;2023-05-17T08:59:18;101655.22;;;27.49;100.00
47985;BME280;33753;52.912;-7.342;2023-05-17T09:01:47;101663.91;;;27.53;100.00
47985;BME280;33753;52.912;-7.342;2023-05-17T09:04:18;101662.78;;;27.71;100.00
47985;BME280;33753;52.912;-7.342;2023-05-17T09:06:47;101654.56;;;27.42;100.00
47985;BME280;33753;52.912;-7.342;2023-05-17T09:09:17;101652.41;;;28.05;100.00
47985;BME280;33753;52.912;-7.342;2023-05-17T09:11:46;101650.03;;;27.53;100.00
47985;BME280;33753;52.912;-7.342;2023-05-17T09:14:15;101650.66;;;27.82;100.00
47985;BME280;33753;52.912;-7.342;2023-05-17T09:16:43;101639.13;;;28.13;100.00
47985;BME280;33753;52.912;-7.342;2023-05-17T09:19:15;101646.53;;;27.85;100.00
47985;BME280;33753;52.912;-7.342;2023-05-17T09:21:46;101636.06;;;27.92;100.00
47985;BME280;33753;52.912;-7.342;2023-05-17T09:24:16;101631.09;;;27.33;96.84
47985;BME280;33753;52.912;-7.342;2023-05-17T09:26:45;101636.25;;;27.24;99.07
47985;BME280;33753;52.912;-7.342;2023-05-17T09:29:15;101630.34;;;27.03;98.60
47985;BME280;33753;52.912;-7.342;2023-05-17T09:31:43;101633.94;;;26.53;99.21
47985;BME280;33753;52.912;-7.342;2023-05-17T09:34:11;101629.50;;;27.20;100.00
47985;BME280;33753;52.912;-7.342;2023-05-17T09:36:46;101633.03;;;27.71;100.00
47985;BME280;33753;52.912;-7.342;2023-05-17T09:39:14;101623.84;;;27.93;100.00
47985;BME280;33753;52.912;-7.342;2023-05-17T09:41:43;101632.19;;;28.42;100.00
47985;BME280;33753;52.912;-7.342;2023-05-17T09:44:13;101623.38;;;28.83;100.00
47985;BME280;33753;52.912;-7.342;2023-05-17T09:46:43;101628.69;;;29.70;100.00
47985;BME280;33753;52.912;-7.342;2023-05-17T09:49:11;101625.50;;;30.04;100.00
47985;BME280;33753;52.912;-7.342;2023-05-17T09:51:40;101623.59;;;30.30;99.80
47985;BME280;33753;52.912;-7.342;2023-05-17T09:54:10;101620.56;;;30.42;96.85
47985;BME280;33753;52.912;-7.342;2023-05-17T09:56:39;101621.13;;;30.96;98.11
47985;BME280;33753;52.912;-7.342;2023-05-17T09:59:10;101621.97;;;30.81;95.56
47985;BME280;33753;52.912;-7.342;2023-05-17T10:01:39;101628.97;;;30.78;96.13
47985;BME280;33753;52.912;-7.342;2023-05-17T10:04:07;101616.09;;;30.88;94.31
47985;BME280;33753;52.912;-7.342;2023-05-17T10:06:38;101612.38;;;30.05;91.40
47985;BME280;33753;52.912;-7.342;2023-05-17T10:09:11;101616.00;;;30.00;91.84
47985;BME280;33753;52.912;-7.342;2023-05-17T10:11:40;101612.06;;;29.96;92.47
47985;BME280;33753;52.912;-7.342;2023-05-17T10:14:10;101622.19;;;30.12;93.27
47985;BME280;33753;52.912;-7.342;2023-05-17T10:16:40;101618.25;;;30.08;92.20
47985;BME280;33753;52.912;-7.342;2023-05-17T10:19:08;101617.28;;;29.82;91.69
47985;BME280;33753;52.912;-7.342;2023-05-17T10:21:38;101614.38;;;29.08;89.73
47985;BME280;33753;52.912;-7.342;2023-05-17T10:24:08;101610.28;;;28.78;93.21
47985;BME280;33753;52.912;-7.342;2023-05-17T10:26:38;101612.03;;;28.90;93.42
47985;BME280;33753;52.912;-7.342;2023-05-17T10:29:09;101611.97;;;28.85;92.86
47985;BME280;33753;52.912;-7.342;2023-05-17T10:31:38;101604.06;;;29.52;93.23
47985;BME280;33753;52.912;-7.342;2023-05-17T10:34:07;101600.34;;;29.99;92.58
47985;BME280;33753;52.912;-7.342;2023-05-17T10:36:37;101597.47;;;29.73;91.89
47985;BME280;33753;52.912;-7.342;2023-05-17T10:39:06;101606.53;;;29.00;89.88
47985;BME280;33753;52.912;-7.342;2023-05-17T10:41:34;101598.22;;;29.05;90.02
47985;BME280;33753;52.912;-7.342;2023-05-17T10:44:05;101596.91;;;29.18;89.74
47985;BME280;33753;52.912;-7.342;2023-05-17T10:46:35;101591.31;;;29.76;90.96
47985;BME280;33753;52.912;-7.342;2023-05-17T10:49:03;101594.28;;;29.49;90.08
47985;BME280;33753;52.912;-7.342;2023-05-17T10:51:33;101598.59;;;29.77;90.03
47985;BME280;33753;52.912;-7.342;2023-05-17T10:54:02;101598.72;;;30.08;89.33
47985;BME280;33753;52.912;-7.342;2023-05-17T10:56:31;101597.00;;;30.02;87.45
47985;BME280;33753;52.912;-7.342;2023-05-17T10:59:17;101597.75;;;29.77;87.21
47985;BME280;33753;52.912;-7.342;2023-05-17T11:01:49;101593.19;;;29.50;86.81
47985;BME280;33753;52.912;-7.342;2023-05-17T11:04:19;101594.47;;;29.27;87.53
47985;BME280;33753;52.912;-7.342;2023-05-17T11:06:48;101590.31;;;29.93;87.88
47985;BME280;33753;52.912;-7.342;2023-05-17T11:09:16;101592.44;;;29.70;86.39
47985;BME280;33753;52.912;-7.342;2023-05-17T11:12:04;101582.69;;;29.20;84.72
47985;BME280;33753;52.912;-7.342;2023-05-17T11:14:45;101594.94;;;28.76;85.99
47985;BME280;33753;52.912;-7.342;2023-05-17T11:17:13;101591.50;;;28.36;86.22
47985;BME280;33753;52.912;-7.342;2023-05-17T11:19:48;101593.13;;;27.83;86.84
47985;BME280;33753;52.912;-7.342;2023-05-17T11:22:16;101587.25;;;27.79;85.23
47985;BME280;33753;52.912;-7.342;2023-05-17T11:24:44;101583.31;;;28.24;86.57
47985;BME280;33753;52.912;-7.342;2023-05-17T11:27:18;101577.66;;;28.14;85.85
47985;BME280;33753;52.912;-7.342;2023-05-17T11:29:47;101591.50;;;28.36;85.47
47985;BME280;33753;52.912;-7.342;2023-05-17T11:32:15;101581.94;;;28.27;85.79
47985;BME280;33753;52.912;-7.342;2023-05-17T11:34:43;101574.22;;;28.34;85.57
47985;BME280;33753;52.912;-7.342;2023-05-17T11:37:24;101571.31;;;28.51;86.16
47985;BME280;33753;52.912;-7.342;2023-05-17T11:39:59;101575.22;;;28.83;84.65
47985;BME280;33753;52.912;-7.342;2023-05-17T11:42:28;101574.25;;;29.04;85.16
47985;BME280;33753;52.912;-7.342;2023-05-17T11:44:58;101573.09;;;29.00;84.35
47985;BME280;33753;52.912;-7.342;2023-05-17T11:47:28;101570.34;;;29.05;84.09
47985;BME280;33753;52.912;-7.342;2023-05-17T11:49:59;101577.59;;;28.69;82.71
47985;BME280;33753;52.912;-7.342;2023-05-17T11:52:28;101563.31;;;29.35;84.90
47985;BME280;33753;52.912;-7.342;2023-05-17T11:54:56;101573.03;;;28.90;82.69
47985;BME280;33753;52.912;-7.342;2023-05-17T11:57:27;101576.25;;;28.71;81.24
47985;BME280;33753;52.912;-7.342;2023-05-17T12:00:01;101570.19;;;28.20;82.17
47985;BME280;33753;52.912;-7.342;2023-05-17T12:02:38;101573.38;;;28.06;82.92
47985;BME280;33753;52.912;-7.342;2023-05-17T12:05:07;101568.91;;;27.17;82.26
47985;BME280;33753;52.912;-7.342;2023-05-17T12:07:35;101574.91;;;27.08;83.39
47985;BME280;33753;52.912;-7.342;2023-05-17T12:10:04;101568.59;;;26.96;83.95
47985;BME280;33753;52.912;-7.342;2023-05-17T12:12:32;101559.56;;;27.23;83.83
47985;BME280;33753;52.912;-7.342;2023-05-17T12:15:02;101565.69;;;27.25;84.79
47985;BME280;33753;52.912;-7.342;2023-05-17T12:17:32;101565.44;;;26.87;83.56
47985;BME280;33753;52.912;-7.342;2023-05-17T12:20:06;101560.84;;;27.15;84.35
47985;BME280;33753;52.912;-7.342;2023-05-17T12:22:49;101556.16;;;27.38;84.96
47985;BME280;33753;52.912;-7.342;2023-05-17T12:25:18;101554.91;;;27.29;83.93
47985;BME280;33753;52.912;-7.342;2023-05-17T12:27:46;101551.13;;;27.18;83.42
47985;BME280;33753;52.912;-7.342;2023-05-17T12:30:18;101557.09;;;26.70;82.33
47985;BME280;33753;52.912;-7.342;2023-05-17T12:32:46;101564.91;;;26.73;82.78
47985;BME280;33753;52.912;-7.342;2023-05-17T12:35:14;101554.16;;;26.60;83.61
47985;BME280;33753;52.912;-7.342;2023-05-17T12:37:43;101553.31;;;26.60;83.28
47985;BME280;33753;52.912;-7.342;2023-05-17T12:40:11;101558.09;;;25.73;82.26
47985;BME280;33753;52.912;-7.342;2023-05-17T12:42:40;101553.06;;;25.58;83.94
47985;BME280;33753;52.912;-7.342;2023-05-17T12:45:09;101555.81;;;25.69;83.34
47985;BME280;33753;52.912;-7.342;2023-05-17T12:47:40;101543.38;;;25.31;82.39
47985;BME280;33753;52.912;-7.342;2023-05-17T12:50:10;101552.28;;;25.33;82.69